createdAt,value
2023-04-02T15:18:12.098Z,18.77
2023-04-02T15:20:48.552Z,24.88
2023-04-02T15:23:34.382Z,24.65
2023-04-02T15:26:11.905Z,25.57
2023-04-02T15:29:09.293Z,32.22
2023-04-02T15:31:45.752Z,34.20
2023-04-02T15:34:20.080Z,36.58
2023-04-02T15:37:08.153Z,31.55
2023-04-02T15:39:56.801Z,46.53
2023-04-02T15:42:34.142Z,38.03
2023-04-02T15:45:12.811Z,33.05
2023-04-02T15:47:42.389Z,36.03
2023-04-02T15:50:44.065Z,36.65
2023-04-02T15:53:34.866Z,34.08
2023-04-02T15:56:28.430Z,34.88
2023-04-02T15:59:41.229Z,37.05
2023-04-02T16:02:27.327Z,35.45
2023-04-02T16:05:09.110Z,32.38
2023-04-02T16:08:17.173Z,29.48
2023-04-02T16:10:45.557Z,27.15
2023-04-02T16:13:20.781Z,34.50
2023-04-02T16:16:21.200Z,34.00
2023-04-02T16:18:59.240Z,33.22
2023-04-02T16:21:33.264Z,33.33
2023-04-02T16:24:00.185Z,30.95
2023-04-02T16:26:32.520Z,34.17
2023-04-02T16:29:28.636Z,32.53
2023-04-02T16:32:05.053Z,29.70
2023-04-02T16:35:40.925Z,30.95
2023-04-02T16:38:10.468Z,32.88
2023-04-02T16:41:06.812Z,31.27
2023-04-02T16:44:02.124Z,33.50
2023-04-02T16:50:00.017Z,28.20
2023-04-02T16:53:11.443Z,35.90
2023-04-02T16:56:07.814Z,32.05
2023-04-02T16:58:49.788Z,29.23
2023-04-02T17:01:33.545Z,26.90
2023-04-02T17:04:22.997Z,37.53
2023-04-02T17:07:22.915Z,37.03
2023-04-02T17:09:52.231Z,32.53
2023-04-02T17:12:32.534Z,30.63
2023-04-02T17:15:17.034Z,33.30
2023-04-02T17:17:58.071Z,32.33
2023-04-02T17:20:27.125Z,29.67
2023-04-02T17:22:55.792Z,33.17
2023-04-02T17:25:38.583Z,35.38
2023-04-02T17:28:12.492Z,30.02
2023-04-02T17:30:51.259Z,35.30
2023-04-02T17:33:22.039Z,34.78
2023-04-02T17:36:02.242Z,29.90
2023-04-02T17:38:47.873Z,34.00
2023-04-02T17:41:30.546Z,38.42
2023-04-02T17:44:05.913Z,39.40
2023-04-02T17:47:03.267Z,37.47
2023-04-02T17:50:00.924Z,32.63
2023-04-02T17:52:48.598Z,35.47
2023-04-02T17:55:40.635Z,36.20
2023-04-02T17:58:39.402Z,39.95
2023-04-02T18:01:17.470Z,39.58
2023-04-02T18:03:49.230Z,46.22
2023-04-02T18:06:27.734Z,43.80
2023-04-02T18:09:29.605Z,39.35
2023-04-02T18:12:38.778Z,39.03
2023-04-02T18:15:47.659Z,38.47
2023-04-02T18:18:35.012Z,45.40
2023-04-02T18:21:24.537Z,43.05
2023-04-02T18:24:35.746Z,41.53
2023-04-02T18:27:11.362Z,43.72
2023-04-02T18:29:50.002Z,45.40
2023-04-02T18:32:34.904Z,43.17
2023-04-02T18:35:38.834Z,49.00
2023-04-02T18:38:43.665Z,40.17
2023-04-02T18:41:32.384Z,39.00
2023-04-02T18:44:08.848Z,46.65
2023-04-02T18:46:41.742Z,45.05
2023-04-02T18:49:27.770Z,42.58
2023-04-02T18:52:02.441Z,55.25
2023-04-02T18:54:35.883Z,55.83
2023-04-02T18:57:11.552Z,57.45
2023-04-02T19:00:06.737Z,48.55
2023-04-02T19:02:38.833Z,45.85
2023-04-02T19:05:26.250Z,44.13
2023-04-02T19:07:59.891Z,42.67
2023-04-02T19:10:31.501Z,44.92
2023-04-02T19:12:58.089Z,41.65
2023-04-02T19:15:38.553Z,49.85
2023-04-02T19:18:15.896Z,43.50
2023-04-02T19:21:16.506Z,47.67
2023-04-02T19:23:56.729Z,46.88
2023-04-02T19:26:30.716Z,46.10
2023-04-02T19:29:06.293Z,54.20
2023-04-02T19:31:41.735Z,43.25
2023-04-02T19:34:08.436Z,42.25
2023-04-02T19:36:45.015Z,48.42
2023-04-02T19:39:33.424Z,36.95
2023-04-02T19:42:15.455Z,45.65
2023-04-02T19:44:47.331Z,41.65
2023-04-02T19:47:17.754Z,44.17
2023-04-02T19:49:44.953Z,55.35
2023-04-02T19:52:12.326Z,46.85
2023-04-02T19:54:39.048Z,47.88
2023-04-02T19:57:05.965Z,44.58
2023-04-02T19:59:35.143Z,36.97
2023-04-02T20:02:06.785Z,37.60
2023-04-02T20:04:33.532Z,36.53
2023-04-02T20:07:00.177Z,39.47
2023-04-02T20:09:27.633Z,43.97
2023-04-02T20:11:54.180Z,38.83
2023-04-02T20:14:20.783Z,49.03
2023-04-02T20:16:47.857Z,46.97
2023-04-02T20:19:14.490Z,36.60
2023-04-02T20:21:41.230Z,93.13
2023-04-02T20:24:09.567Z,76.90
2023-04-02T20:26:36.706Z,45.55
2023-04-02T20:29:04.081Z,55.80
2023-04-02T20:31:32.299Z,95.93
2023-04-02T20:34:00.014Z,84.43
2023-04-02T20:36:26.760Z,79.93
2023-04-02T20:38:53.469Z,80.07
2023-04-02T20:41:21.876Z,117.97
2023-04-02T20:43:49.898Z,101.75
2023-04-02T20:46:17.141Z,100.72
2023-04-02T20:48:44.157Z,115.18
2023-04-02T20:51:14.489Z,93.82
2023-04-02T20:53:42.261Z,109.80
2023-04-02T20:56:14.408Z,102.75
2023-04-02T20:58:42.186Z,111.18
2023-04-02T21:01:26.553Z,82.70
2023-04-02T21:03:59.355Z,83.07
2023-04-02T21:06:30.386Z,78.65
2023-04-02T21:08:57.324Z,70.88
2023-04-02T21:11:24.758Z,67.55
2023-04-02T21:13:51.807Z,67.22
2023-04-02T21:16:29.228Z,63.20
2023-04-02T21:18:58.411Z,56.05
2023-04-02T21:21:25.934Z,57.13
2023-04-02T21:24:00.640Z,54.40
2023-04-02T21:26:29.091Z,71.15
2023-04-02T21:28:55.998Z,57.28
2023-04-02T21:31:27.442Z,57.95
2023-04-02T21:33:56.966Z,55.80
2023-04-02T21:36:29.352Z,60.30
2023-04-02T21:39:03.749Z,62.47
2023-04-02T21:41:33.946Z,66.13
2023-04-02T21:44:03.227Z,70.88
2023-04-02T21:46:33.594Z,59.35
2023-04-02T21:49:00.973Z,69.30
2023-04-02T21:51:30.064Z,62.83
2023-04-02T21:53:57.724Z,65.53
2023-04-02T21:56:27.117Z,57.20
2023-04-02T21:58:54.690Z,70.28
2023-04-02T22:01:27.342Z,56.55
2023-04-02T22:03:59.312Z,55.58
2023-04-02T22:06:28.128Z,60.70
2023-04-02T22:09:00.405Z,57.78
2023-04-02T22:11:47.548Z,58.45
2023-04-02T22:14:14.494Z,65.10
2023-04-02T22:16:42.594Z,51.30
2023-04-02T22:19:14.736Z,76.18
2023-04-02T22:21:42.017Z,71.40
2023-04-02T22:24:14.844Z,59.20
2023-04-02T22:26:42.237Z,67.03
2023-04-02T22:29:09.310Z,57.90
2023-04-02T22:31:36.044Z,57.70
2023-04-02T22:34:04.765Z,55.92
2023-04-02T22:36:31.848Z,58.22
2023-04-02T22:39:01.697Z,47.05
2023-04-02T22:41:29.604Z,47.50
2023-04-02T22:43:56.977Z,50.92
2023-04-02T22:46:25.787Z,52.55
2023-04-02T22:48:53.728Z,49.28
2023-04-02T22:51:21.781Z,45.88
2023-04-02T22:53:49.587Z,46.22
2023-04-02T22:56:23.018Z,48.13
2023-04-02T22:58:49.869Z,41.25
2023-04-02T23:01:23.093Z,61.75
2023-04-02T23:03:52.585Z,63.92
2023-04-02T23:06:19.328Z,59.28
2023-04-02T23:08:47.054Z,60.95
2023-04-02T23:11:19.914Z,62.53
2023-04-02T23:13:48.782Z,62.22
2023-04-02T23:16:16.459Z,57.20
2023-04-02T23:18:48.888Z,64.00
2023-04-02T23:21:16.909Z,59.90
2023-04-02T23:23:44.171Z,55.22
2023-04-02T23:26:14.929Z,60.03
2023-04-02T23:28:42.295Z,56.90
2023-04-02T23:31:13.258Z,60.35
2023-04-02T23:33:40.498Z,55.10
2023-04-02T23:36:16.459Z,53.42
2023-04-02T23:38:43.973Z,72.75
2023-04-02T23:41:15.424Z,60.75
2023-04-02T23:43:42.782Z,57.85
2023-04-02T23:46:09.482Z,57.53
2023-04-02T23:48:36.242Z,60.00
2023-04-02T23:51:02.799Z,65.90
2023-04-02T23:53:29.401Z,56.63
2023-04-02T23:55:56.210Z,61.97
2023-04-02T23:58:22.816Z,60.38
